createdAt,value
2022-12-17T08:06:02.075Z,1.25
2022-12-17T08:08:48.100Z,1.90
2022-12-17T08:11:33.638Z,1.63
2022-12-17T08:14:19.384Z,1.55
2022-12-17T08:17:05.249Z,1.58
2022-12-17T08:19:50.762Z,1.08
2022-12-17T08:22:36.379Z,1.48
2022-12-17T08:25:21.979Z,1.40
2022-12-17T08:28:11.223Z,1.45
2022-12-17T08:31:08.454Z,1.92
2022-12-17T08:36:39.539Z,1.92
2022-12-17T08:39:25.006Z,1.90
2022-12-17T08:42:10.861Z,1.65
2022-12-17T08:45:04.245Z,1.98
2022-12-17T08:47:49.868Z,2.10
2022-12-17T08:50:38.009Z,2.47
2022-12-17T08:53:28.516Z,1.83
2022-12-17T08:56:17.131Z,1.73
2022-12-17T08:59:04.533Z,2.55
2022-12-17T09:01:52.000Z,1.45
2022-12-17T09:07:26.922Z,2.00
2022-12-17T09:10:14.032Z,1.98
2022-12-17T09:13:04.588Z,2.30
2022-12-17T09:15:50.911Z,1.73
2022-12-17T09:18:40.794Z,2.45
2022-12-17T09:21:27.641Z,1.38
2022-12-17T09:24:12.986Z,2.10
2022-12-17T09:26:58.679Z,2.03
2022-12-17T09:29:44.155Z,1.38
2022-12-17T09:32:29.717Z,1.55
2022-12-17T09:35:15.214Z,1.83
2022-12-17T09:38:20.733Z,1.30
2022-12-17T09:41:08.513Z,1.52
2022-12-17T09:44:02.904Z,2.35
2022-12-17T09:47:10.074Z,1.20
2022-12-17T09:52:50.265Z,1.38
2022-12-17T09:56:13.336Z,1.58
2022-12-17T09:58:59.893Z,2.25
2022-12-17T10:01:53.387Z,2.83
2022-12-17T10:04:57.402Z,1.83
2022-12-17T10:07:47.524Z,2.03
2022-12-17T10:10:41.124Z,1.80
2022-12-17T10:13:44.728Z,1.70
2022-12-17T10:17:07.088Z,1.35
2022-12-17T10:20:00.639Z,2.17
2022-12-17T10:22:51.250Z,3.05
2022-12-17T10:25:41.927Z,2.33
2022-12-17T10:28:32.064Z,1.77
2022-12-17T10:31:19.236Z,2.00
2022-12-17T10:34:05.848Z,1.65
2022-12-17T10:36:51.192Z,1.70
2022-12-17T10:39:41.378Z,1.60
2022-12-17T10:42:56.984Z,2.47
2022-12-17T10:45:48.715Z,1.58
2022-12-17T10:48:46.989Z,1.20
2022-12-17T10:51:54.732Z,1.13
2022-12-17T10:54:49.297Z,1.20
2022-12-17T10:57:56.818Z,5.35
2022-12-17T11:00:50.145Z,0.93
2022-12-17T11:04:10.713Z,0.80
2022-12-17T11:07:36.488Z,0.63
2022-12-17T11:10:24.568Z,0.80
2022-12-17T11:13:22.586Z,1.17
2022-12-17T11:16:17.020Z,0.40
2022-12-17T11:19:28.355Z,1.35
2022-12-17T11:22:22.097Z,1.10
2022-12-17T11:25:24.951Z,2.20
2022-12-17T11:28:22.196Z,1.52
2022-12-17T11:31:34.487Z,0.70
2022-12-17T11:34:30.554Z,1.40
2022-12-17T11:37:29.981Z,2.33
2022-12-17T11:40:32.995Z,1.88
2022-12-17T11:43:53.835Z,1.83
2022-12-17T11:47:14.771Z,0.98
2022-12-17T11:50:23.492Z,1.92
2022-12-17T11:53:27.500Z,2.33
2022-12-17T11:56:32.227Z,2.15
2022-12-17T11:59:55.900Z,1.10
2022-12-17T12:03:18.035Z,0.73
2022-12-17T12:06:16.706Z,1.42
2022-12-17T12:09:11.130Z,1.58
2022-12-17T12:12:18.814Z,1.60
2022-12-17T12:15:23.726Z,2.65
2022-12-17T12:18:22.156Z,1.63
2022-12-17T12:21:32.361Z,1.83
2022-12-17T12:24:35.848Z,1.05
2022-12-17T12:27:37.721Z,1.75
2022-12-17T12:30:39.547Z,1.23
2022-12-17T12:33:40.101Z,1.60
2022-12-17T12:36:30.106Z,1.60
2022-12-17T12:39:16.918Z,2.10
2022-12-17T12:42:14.228Z,2.08
2022-12-17T12:47:55.693Z,2.10
2022-12-17T12:50:58.994Z,3.90
2022-12-17T12:53:44.649Z,1.95
2022-12-17T12:56:53.203Z,2.63
2022-12-17T12:59:49.205Z,1.63
2022-12-17T13:02:46.307Z,2.40
2022-12-17T13:05:34.406Z,2.28
2022-12-17T13:08:20.236Z,1.65
2022-12-17T13:10:48.061Z,2.72
2022-12-17T13:15:49.823Z,1.40
2022-12-17T13:18:34.415Z,1.77
2022-12-17T13:21:26.180Z,1.73
2022-12-17T13:23:53.876Z,1.20
2022-12-17T13:26:43.434Z,2.17
2022-12-17T13:29:42.513Z,1.67
2022-12-17T13:32:20.171Z,1.80
2022-12-17T13:35:33.564Z,1.75
2022-12-17T13:38:05.243Z,2.72
2022-12-17T13:40:57.647Z,1.83
2022-12-17T13:43:31.509Z,3.20
2022-12-17T13:45:59.406Z,2.47
2022-12-17T13:48:29.755Z,2.05
2022-12-17T13:51:02.593Z,1.95
2022-12-17T13:53:34.631Z,1.42
2022-12-17T13:56:02.272Z,3.38
2022-12-17T13:58:33.055Z,3.83
2022-12-17T14:01:07.578Z,2.22
2022-12-17T14:04:04.244Z,1.50
2022-12-17T14:06:24.107Z,1.77
2022-12-17T14:08:54.430Z,2.10
2022-12-17T14:11:59.960Z,1.48
2022-12-17T14:14:35.333Z,1.85
2022-12-17T14:17:02.983Z,1.63
2022-12-17T14:19:32.285Z,1.80
2022-12-17T14:22:00.637Z,2.15
2022-12-17T14:24:29.682Z,1.38
2022-12-17T14:27:01.126Z,2.00
2022-12-17T14:29:32.754Z,2.83
2022-12-17T14:32:03.247Z,2.75
2022-12-17T14:34:42.205Z,4.82
2022-12-17T14:37:17.772Z,3.42
2022-12-17T14:39:47.262Z,3.60
2022-12-17T14:42:25.987Z,2.00
2022-12-17T14:45:07.460Z,2.75
2022-12-17T14:47:37.558Z,3.33
2022-12-17T14:50:24.319Z,5.45
2022-12-17T14:52:55.690Z,19.67
2022-12-17T14:55:35.670Z,22.25
2022-12-17T15:00:39.558Z,9.05
2022-12-17T15:03:07.026Z,9.18
2022-12-17T15:05:35.814Z,4.85
2022-12-17T15:08:06.698Z,2.53
2022-12-17T15:10:33.975Z,4.20
2022-12-17T15:13:01.349Z,3.78
2022-12-17T15:15:28.760Z,3.55
2022-12-17T15:17:55.966Z,4.57
2022-12-17T15:20:23.142Z,3.35
2022-12-17T15:22:50.246Z,3.35
2022-12-17T15:25:19.712Z,3.33
2022-12-17T15:27:47.146Z,3.08
2022-12-17T15:30:17.542Z,3.60
2022-12-17T15:32:45.888Z,3.95
2022-12-17T15:35:14.973Z,4.95
2022-12-17T15:37:42.494Z,2.88
2022-12-17T15:40:12.370Z,2.83
2022-12-17T15:43:01.677Z,3.15
2022-12-17T15:45:50.993Z,2.90
2022-12-17T15:48:26.664Z,2.72
2022-12-17T15:50:54.280Z,4.18
2022-12-17T15:53:21.769Z,5.45
2022-12-17T15:55:49.071Z,5.25
2022-12-17T15:58:26.101Z,6.13
2022-12-17T16:00:54.126Z,3.58
2022-12-17T16:03:22.555Z,3.10
2022-12-17T16:05:49.963Z,3.08
2022-12-17T16:08:17.246Z,3.38
2022-12-17T16:10:44.781Z,2.65
2022-12-17T16:13:12.630Z,3.38
2022-12-17T16:18:06.990Z,3.70
2022-12-17T16:20:34.258Z,4.65
2022-12-17T16:23:01.532Z,3.95
2022-12-17T16:25:28.955Z,6.15
2022-12-17T16:27:56.222Z,5.82
2022-12-17T16:30:23.473Z,4.60
2022-12-17T16:32:50.762Z,9.23
2022-12-17T16:35:18.328Z,7.47
2022-12-17T16:37:45.440Z,8.23
2022-12-17T16:40:12.824Z,4.82
2022-12-17T16:42:39.968Z,4.00
2022-12-17T16:45:08.100Z,5.10
2022-12-17T16:47:35.215Z,4.78
2022-12-17T16:50:02.803Z,4.53
2022-12-17T16:52:30.397Z,4.65
2022-12-17T16:54:57.625Z,4.57
2022-12-17T16:57:25.350Z,2.97
2022-12-17T16:59:55.849Z,3.08
2022-12-17T17:02:23.156Z,3.13
2022-12-17T17:04:50.935Z,2.72
2022-12-17T17:07:18.682Z,2.10
2022-12-17T17:09:48.778Z,1.95
2022-12-17T17:12:16.448Z,2.70
2022-12-17T17:14:44.697Z,7.90
2022-12-17T17:17:12.759Z,4.97
2022-12-17T17:22:08.323Z,3.42
2022-12-17T17:24:36.454Z,1.83
2022-12-17T17:27:04.026Z,2.35
2022-12-17T17:29:31.622Z,2.33
2022-12-17T17:32:10.595Z,4.05
2022-12-17T17:34:39.873Z,3.10
2022-12-17T17:37:07.581Z,1.92
2022-12-17T17:39:35.054Z,2.10
2022-12-17T17:42:03.278Z,2.63
2022-12-17T17:44:34.110Z,2.25
2022-12-17T17:47:02.345Z,2.80
2022-12-17T17:49:29.534Z,3.10
2022-12-17T17:52:15.628Z,3.28
2022-12-17T17:54:42.948Z,2.72
2022-12-17T17:57:11.214Z,1.50
2022-12-17T17:59:40.218Z,2.38
2022-12-17T18:02:08.900Z,2.08
2022-12-17T18:04:40.054Z,2.13
2022-12-17T18:09:55.191Z,1.90
2022-12-17T18:12:41.604Z,2.05
2022-12-17T18:15:14.795Z,2.88
2022-12-17T18:17:43.594Z,2.70
2022-12-17T18:22:41.287Z,3.85
2022-12-17T18:25:08.929Z,3.22
2022-12-17T18:27:36.187Z,2.33
2022-12-17T18:30:04.444Z,2.45
2022-12-17T18:33:01.809Z,1.90
2022-12-17T18:35:28.935Z,1.77
2022-12-17T18:37:56.358Z,1.98
2022-12-17T18:40:24.337Z,1.63
2022-12-17T18:43:12.509Z,1.92
2022-12-17T18:45:39.761Z,1.88
2022-12-17T18:48:06.933Z,2.17
2022-12-17T18:50:35.218Z,1.55
2022-12-17T18:53:02.809Z,2.20
2022-12-17T18:55:29.961Z,2.17
2022-12-17T18:57:57.235Z,2.15
2022-12-17T19:00:24.492Z,10.90
2022-12-17T19:02:51.709Z,7.50
2022-12-17T19:05:19.095Z,6.07
2022-12-17T19:07:46.743Z,1.55
2022-12-17T19:10:13.848Z,0.90
2022-12-17T19:12:40.911Z,1.88
2022-12-17T19:15:08.634Z,1.50
2022-12-17T19:17:35.695Z,1.40
2022-12-17T19:20:02.761Z,2.38
2022-12-17T19:22:29.820Z,2.42
2022-12-17T19:24:56.837Z,2.13
2022-12-17T19:27:24.786Z,2.27
2022-12-17T19:32:18.828Z,1.63
2022-12-17T19:34:46.322Z,2.40
2022-12-17T19:37:13.550Z,1.60
2022-12-17T19:39:40.620Z,1.92
2022-12-17T19:42:25.182Z,1.70
2022-12-17T19:44:53.716Z,1.70
2022-12-17T19:47:21.441Z,1.15
2022-12-17T19:49:48.562Z,1.33
2022-12-17T19:52:15.751Z,0.80
2022-12-17T19:54:43.113Z,1.08
2022-12-17T19:57:10.546Z,1.35
2022-12-17T19:59:38.096Z,1.27
2022-12-17T20:02:05.474Z,1.08
2022-12-17T20:04:32.788Z,1.48
2022-12-17T20:07:01.020Z,1.35
2022-12-17T20:09:28.413Z,0.95
2022-12-17T20:11:55.667Z,0.88
2022-12-17T20:14:26.820Z,1.13
2022-12-17T20:16:58.042Z,0.70
2022-12-17T20:19:28.053Z,0.80
2022-12-17T20:21:55.759Z,1.90
2022-12-17T20:24:30.381Z,1.00
2022-12-17T20:26:58.781Z,1.67
2022-12-17T20:29:26.207Z,1.00
2022-12-17T20:31:55.026Z,1.77
2022-12-17T20:34:22.335Z,2.88
2022-12-17T20:36:50.537Z,3.75
2022-12-17T20:39:26.169Z,1.52
2022-12-17T20:41:54.660Z,1.83
2022-12-17T20:44:22.105Z,1.45
2022-12-17T20:46:49.180Z,1.10
2022-12-17T20:49:16.353Z,1.17
2022-12-17T20:51:43.922Z,1.55
2022-12-17T20:54:11.798Z,1.65
2022-12-17T20:59:08.940Z,1.27
2022-12-17T21:01:37.630Z,1.17
2022-12-17T21:04:07.803Z,1.77
2022-12-17T21:06:41.465Z,1.67
2022-12-17T21:09:09.196Z,2.20
2022-12-17T21:11:39.075Z,1.73
2022-12-17T21:14:09.710Z,1.17
2022-12-17T21:16:38.624Z,2.67
2022-12-17T21:19:07.693Z,1.92
2022-12-17T21:21:37.392Z,1.67
2022-12-17T21:24:05.338Z,2.72
2022-12-17T21:29:02.569Z,1.80
2022-12-17T21:31:32.881Z,1.88
2022-12-17T21:34:03.507Z,2.05
2022-12-17T21:36:32.682Z,2.03
2022-12-17T21:39:00.639Z,2.90
2022-12-17T21:41:32.339Z,2.25
2022-12-17T21:44:02.445Z,2.08
2022-12-17T21:46:30.467Z,1.90
2022-12-17T21:51:27.038Z,1.45
2022-12-17T21:53:56.650Z,1.63
2022-12-17T21:56:24.578Z,2.28
2022-12-17T21:58:59.979Z,1.50
2022-12-17T22:01:32.214Z,1.92
2022-12-17T22:04:01.114Z,1.80
2022-12-17T22:06:37.636Z,1.60
2022-12-17T22:09:22.990Z,1.50
2022-12-17T22:12:21.103Z,0.85
2022-12-17T22:14:48.337Z,1.17
2022-12-17T22:17:18.626Z,2.08
2022-12-17T22:19:45.673Z,7.72
2022-12-17T22:22:12.681Z,4.90
2022-12-17T22:24:40.022Z,3.40
2022-12-17T22:27:09.535Z,2.38
2022-12-17T22:29:55.885Z,2.88
2022-12-17T22:32:41.614Z,1.63
2022-12-17T22:37:35.244Z,2.03
2022-12-17T22:41:11.171Z,2.38
2022-12-17T22:44:12.738Z,1.77
2022-12-17T22:44:40.878Z,1.95
2022-12-17T22:46:19.880Z,2.45
2022-12-17T22:51:17.583Z,1.15
2022-12-17T22:54:06.167Z,1.80
2022-12-17T22:57:32.473Z,1.60
2022-12-17T22:59:25.184Z,1.65
2022-12-17T23:01:52.211Z,1.15
2022-12-17T23:04:19.561Z,1.00
2022-12-17T23:06:47.161Z,1.05
2022-12-17T23:09:19.621Z,0.98
2022-12-17T23:11:48.249Z,1.05
2022-12-17T23:14:15.696Z,0.98
2022-12-17T23:16:42.959Z,1.00
2022-12-17T23:19:10.467Z,1.20
2022-12-17T23:21:38.014Z,1.00
2022-12-17T23:24:05.548Z,0.90
2022-12-17T23:26:35.243Z,2.10
2022-12-17T23:29:08.507Z,1.58
2022-12-17T23:31:38.523Z,2.17
2022-12-17T23:34:06.170Z,1.58
2022-12-17T23:36:33.704Z,1.27
2022-12-17T23:39:00.956Z,0.82
2022-12-17T23:41:31.963Z,0.90
2022-12-17T23:43:59.600Z,1.20
2022-12-17T23:46:31.963Z,0.88
2022-12-17T23:48:59.464Z,0.85
2022-12-17T23:51:26.954Z,0.80
2022-12-17T23:53:54.286Z,1.17
2022-12-17T23:56:24.354Z,1.02
2022-12-17T23:58:59.743Z,1.50
